sensor_id;sensor_type;location;lat;lon;timestamp;pressure;altitude;pressure_sealevel;temperature
61390;BMP280;47260;48.274;19.814;2023-05-07T00:00:26;99330.88;;;12.18
61390;BMP280;47260;48.274;19.814;2023-05-07T00:01:57;99331.38;;;12.11
61390;BMP280;47260;48.274;19.814;2023-05-07T00:03:31;99333.38;;;12.10
61390;BMP280;47260;48.274;19.814;2023-05-07T00:05:01;99333.44;;;11.99
61390;BMP280;47260;48.274;19.814;2023-05-07T00:06:33;99320.75;;;11.94
61390;BMP280;47260;48.274;19.814;2023-05-07T00:08:04;99323.47;;;11.94
61390;BMP280;47260;48.274;19.814;2023-05-07T00:09:36;99317.34;;;11.94
61390;BMP280;47260;48.274;19.814;2023-05-07T00:11:07;99317.34;;;11.94
61390;BMP280;47260;48.274;19.814;2023-05-07T00:12:40;99320.25;;;11.96
61390;BMP280;47260;48.274;19.814;2023-05-07T00:14:10;99316.84;;;11.95
61390;BMP280;47260;48.274;19.814;2023-05-07T00:15:42;99304.13;;;11.96
61390;BMP280;47260;48.274;19.814;2023-05-07T00:17:14;99304.63;;;11.94
61390;BMP280;47260;48.274;19.814;2023-05-07T00:18:47;99307.81;;;11.93
61390;BMP280;47260;48.274;19.814;2023-05-07T00:20:18;99307.81;;;11.93
61390;BMP280;47260;48.274;19.814;2023-05-07T00:21:50;99311.25;;;11.93
61390;BMP280;47260;48.274;19.814;2023-05-07T00:23:23;99306.59;;;11.88
61390;BMP280;47260;48.274;19.814;2023-05-07T00:24:55;99314.22;;;11.84
61390;BMP280;47260;48.274;19.814;2023-05-07T00:26:27;99320.84;;;11.83
61390;BMP280;47260;48.274;19.814;2023-05-07T00:27:58;99317.00;;;11.73
61390;BMP280;47260;48.274;19.814;2023-05-07T00:29:34;99319.69;;;11.73
61390;BMP280;47260;48.274;19.814;2023-05-07T00:31:06;99317.28;;;11.64
61390;BMP280;47260;48.274;19.814;2023-05-07T00:32:38;99323.72;;;11.50
61390;BMP280;47260;48.274;19.814;2023-05-07T00:34:11;99319.53;;;11.49
61390;BMP280;47260;48.274;19.814;2023-05-07T00:35:43;99314.16;;;11.49
61390;BMP280;47260;48.274;19.814;2023-05-07T00:37:15;99312.66;;;11.53
61390;BMP280;47260;48.274;19.814;2023-05-07T00:38:46;99314.13;;;11.54
61390;BMP280;47260;48.274;19.814;2023-05-07T00:40:18;99309.25;;;11.53
61390;BMP280;47260;48.274;19.814;2023-05-07T00:41:48;99309.25;;;11.53
61390;BMP280;47260;48.274;19.814;2023-05-07T00:43:21;99300.72;;;11.49
61390;BMP280;47260;48.274;19.814;2023-05-07T00:44:53;99299.28;;;11.48
61390;BMP280;47260;48.274;19.814;2023-05-07T00:46:25;99300.03;;;11.43
61390;BMP280;47260;48.274;19.814;2023-05-07T00:47:59;99304.44;;;11.40
61390;BMP280;47260;48.274;19.814;2023-05-07T00:49:37;99309.06;;;11.40
61390;BMP280;47260;48.274;19.814;2023-05-07T00:51:10;99308.34;;;11.39
61390;BMP280;47260;48.274;19.814;2023-05-07T00:52:42;99306.44;;;11.23
61390;BMP280;47260;48.274;19.814;2023-05-07T00:54:13;99317.91;;;11.24
61390;BMP280;47260;48.274;19.814;2023-05-07T00:55:45;99305.22;;;11.24
61390;BMP280;47260;48.274;19.814;2023-05-07T00:57:17;99306.97;;;11.22
61390;BMP280;47260;48.274;19.814;2023-05-07T00:58:48;99307.69;;;11.17
61390;BMP280;47260;48.274;19.814;2023-05-07T01:00:20;99304.75;;;11.15
61390;BMP280;47260;48.274;19.814;2023-05-07T01:01:52;99302.34;;;11.11
61390;BMP280;47260;48.274;19.814;2023-05-07T01:03:22;99306.50;;;11.12
61390;BMP280;47260;48.274;19.814;2023-05-07T01:04:56;99304.78;;;11.09
61390;BMP280;47260;48.274;19.814;2023-05-07T01:06:28;99304.31;;;11.00
61390;BMP280;47260;48.274;19.814;2023-05-07T01:08:02;99305.09;;;10.95
61390;BMP280;47260;48.274;19.814;2023-05-07T01:09:35;99299.94;;;10.91
61390;BMP280;47260;48.274;19.814;2023-05-07T01:11:07;99298.00;;;10.86
61390;BMP280;47260;48.274;19.814;2023-05-07T01:12:39;99291.94;;;10.80
61390;BMP280;47260;48.274;19.814;2023-05-07T01:14:11;99293.88;;;10.85
61390;BMP280;47260;48.274;19.814;2023-05-07T01:15:42;99300.97;;;10.77
61390;BMP280;47260;48.274;19.814;2023-05-07T01:17:14;99299.28;;;10.74
61390;BMP280;47260;48.274;19.814;2023-05-07T01:18:46;99300.97;;;10.71
61390;BMP280;47260;48.274;19.814;2023-05-07T01:20:20;99307.56;;;10.70
61390;BMP280;47260;48.274;19.814;2023-05-07T01:21:58;99307.31;;;10.68
61390;BMP280;47260;48.274;19.814;2023-05-07T01:23:34;99314.16;;;10.69
61390;BMP280;47260;48.274;19.814;2023-05-07T01:25:07;99311.72;;;10.66
61390;BMP280;47260;48.274;19.814;2023-05-07T01:26:42;99313.19;;;10.61
61390;BMP280;47260;48.274;19.814;2023-05-07T01:28:12;99314.16;;;10.58
61390;BMP280;47260;48.274;19.814;2023-05-07T01:29:46;99312.19;;;10.53
61390;BMP280;47260;48.274;19.814;2023-05-07T01:31:17;99308.31;;;10.49
61390;BMP280;47260;48.274;19.814;2023-05-07T01:32:53;99296.59;;;10.52
61390;BMP280;47260;48.274;19.814;2023-05-07T01:34:30;99302.97;;;10.38
61390;BMP280;47260;48.274;19.814;2023-05-07T01:36:04;99288.81;;;10.32
61390;BMP280;47260;48.274;19.814;2023-05-07T01:37:39;99281.22;;;10.36
61390;BMP280;47260;48.274;19.814;2023-05-07T01:39:13;99284.63;;;10.36
61390;BMP280;47260;48.274;19.814;2023-05-07T01:40:45;99289.25;;;10.36
61390;BMP280;47260;48.274;19.814;2023-05-07T01:42:16;99296.59;;;10.35
61390;BMP280;47260;48.274;19.814;2023-05-07T01:43:48;99295.91;;;10.35
61390;BMP280;47260;48.274;19.814;2023-05-07T01:45:19;99301.47;;;10.37
61390;BMP280;47260;48.274;19.814;2023-05-07T01:46:51;99305.38;;;10.36
61390;BMP280;47260;48.274;19.814;2023-05-07T01:48:24;99296.34;;;10.39
61390;BMP280;47260;48.274;19.814;2023-05-07T01:49:55;99297.09;;;10.39
61390;BMP280;47260;48.274;19.814;2023-05-07T01:51:27;99296.34;;;10.39
61390;BMP280;47260;48.274;19.814;2023-05-07T01:53:01;99297.56;;;10.43
61390;BMP280;47260;48.274;19.814;2023-05-07T01:54:34;99295.13;;;10.51
61390;BMP280;47260;48.274;19.814;2023-05-07T01:56:06;99292.22;;;10.49
61390;BMP280;47260;48.274;19.814;2023-05-07T01:57:40;99296.88;;;10.43
61390;BMP280;47260;48.274;19.814;2023-05-07T01:59:11;99293.66;;;10.44
61390;BMP280;47260;48.274;19.814;2023-05-07T02:00:44;99292.72;;;10.42
61390;BMP280;47260;48.274;19.814;2023-05-07T02:02:16;99297.56;;;10.43
61390;BMP280;47260;48.274;19.814;2023-05-07T02:03:48;99299.56;;;10.43
61390;BMP280;47260;48.274;19.814;2023-05-07T02:05:26;99293.91;;;10.41
61390;BMP280;47260;48.274;19.814;2023-05-07T02:07:03;99295.63;;;10.38
61390;BMP280;47260;48.274;19.814;2023-05-07T02:08:35;99293.44;;;10.37
61390;BMP280;47260;48.274;19.814;2023-05-07T02:10:09;99287.09;;;10.34
61390;BMP280;47260;48.274;19.814;2023-05-07T02:11:41;99292.22;;;10.32
61390;BMP280;47260;48.274;19.814;2023-05-07T02:13:13;99287.34;;;10.25
61390;BMP280;47260;48.274;19.814;2023-05-07T02:14:44;99287.56;;;10.22
61390;BMP280;47260;48.274;19.814;2023-05-07T02:16:16;99295.16;;;10.23
61390;BMP280;47260;48.274;19.814;2023-05-07T02:18:01;99291.50;;;10.21
61390;BMP280;47260;48.274;19.814;2023-05-07T02:19:33;99283.16;;;10.19
61390;BMP280;47260;48.274;19.814;2023-05-07T02:21:04;99293.91;;;10.19
61390;BMP280;47260;48.274;19.814;2023-05-07T02:22:36;99279.28;;;10.20
61390;BMP280;47260;48.274;19.814;2023-05-07T02:24:08;99284.91;;;10.22
61390;BMP280;47260;48.274;19.814;2023-05-07T02:25:41;99288.09;;;10.26
61390;BMP280;47260;48.274;19.814;2023-05-07T02:27:13;99284.91;;;10.22
61390;BMP280;47260;48.274;19.814;2023-05-07T02:28:45;99289.78;;;10.23
61390;BMP280;47260;48.274;19.814;2023-05-07T02:30:17;99283.69;;;10.23
61390;BMP280;47260;48.274;19.814;2023-05-07T02:31:48;99286.38;;;10.23
61390;BMP280;47260;48.274;19.814;2023-05-07T02:33:21;99284.44;;;10.23
61390;BMP280;47260;48.274;19.814;2023-05-07T02:34:52;99276.38;;;10.23
61390;BMP280;47260;48.274;19.814;2023-05-07T02:36:24;99268.34;;;10.23
61390;BMP280;47260;48.274;19.814;2023-05-07T02:38:06;99274.16;;;10.27
61390;BMP280;47260;48.274;19.814;2023-05-07T02:39:39;99281.00;;;10.28
61390;BMP280;47260;48.274;19.814;2023-05-07T02:41:11;99286.38;;;10.28
61390;BMP280;47260;48.274;19.814;2023-05-07T02:42:43;99287.81;;;10.29
61390;BMP280;47260;48.274;19.814;2023-05-07T02:44:13;99284.88;;;10.27
61390;BMP280;47260;48.274;19.814;2023-05-07T02:45:46;99290.00;;;10.20
61390;BMP280;47260;48.274;19.814;2023-05-07T02:47:18;99277.13;;;10.18
61390;BMP280;47260;48.274;19.814;2023-05-07T02:48:50;99280.03;;;10.15
61390;BMP280;47260;48.274;19.814;2023-05-07T02:50:22;99277.84;;;10.13
61390;BMP280;47260;48.274;19.814;2023-05-07T02:51:54;99280.53;;;10.13
61390;BMP280;47260;48.274;19.814;2023-05-07T02:53:27;99288.06;;;10.09
61390;BMP280;47260;48.274;19.814;2023-05-07T02:55:00;99283.19;;;10.08
61390;BMP280;47260;48.274;19.814;2023-05-07T02:56:34;99289.03;;;10.06
61390;BMP280;47260;48.274;19.814;2023-05-07T02:58:05;99281.72;;;10.07
61390;BMP280;47260;48.274;19.814;2023-05-07T02:59:39;99277.59;;;10.06
61390;BMP280;47260;48.274;19.814;2023-05-07T03:01:10;99286.59;;;10.03
61390;BMP280;47260;48.274;19.814;2023-05-07T03:02:54;99280.00;;;10.04
61390;BMP280;47260;48.274;19.814;2023-05-07T03:04:26;99275.63;;;10.06
61390;BMP280;47260;48.274;19.814;2023-05-07T03:05:58;99278.06;;;10.04
61390;BMP280;47260;48.274;19.814;2023-05-07T03:07:30;99283.16;;;10.02
61390;BMP280;47260;48.274;19.814;2023-05-07T03:09:01;99281.22;;;10.03
61390;BMP280;47260;48.274;19.814;2023-05-07T03:10:34;99284.16;;;10.05
61390;BMP280;47260;48.274;19.814;2023-05-07T03:12:07;99291.97;;;10.03
61390;BMP280;47260;48.274;19.814;2023-05-07T03:13:38;99291.22;;;10.02
61390;BMP280;47260;48.274;19.814;2023-05-07T03:15:10;99294.63;;;10.03
61390;BMP280;47260;48.274;19.814;2023-05-07T03:16:42;99298.78;;;10.04
61390;BMP280;47260;48.274;19.814;2023-05-07T03:18:14;99300.97;;;10.05
61390;BMP280;47260;48.274;19.814;2023-05-07T03:19:45;99295.88;;;10.07
61390;BMP280;47260;48.274;19.814;2023-05-07T03:21:17;99305.13;;;10.12
61390;BMP280;47260;48.274;19.814;2023-05-07T03:22:47;99309.78;;;10.17
61390;BMP280;47260;48.274;19.814;2023-05-07T03:24:19;99307.84;;;10.17
61390;BMP280;47260;48.274;19.814;2023-05-07T03:25:50;99314.41;;;10.16
61390;BMP280;47260;48.274;19.814;2023-05-07T03:27:23;99320.75;;;10.24
61390;BMP280;47260;48.274;19.814;2023-05-07T03:28:55;99320.28;;;10.26
61390;BMP280;47260;48.274;19.814;2023-05-07T03:30:26;99326.63;;;10.23
61390;BMP280;47260;48.274;19.814;2023-05-07T03:31:57;99321.25;;;10.28
61390;BMP280;47260;48.274;19.814;2023-05-07T03:33:29;99324.16;;;10.36
61390;BMP280;47260;48.274;19.814;2023-05-07T03:35:01;99323.44;;;10.41
61390;BMP280;47260;48.274;19.814;2023-05-07T03:36:32;99329.09;;;10.43
61390;BMP280;47260;48.274;19.814;2023-05-07T03:38:03;99333.72;;;10.48
61390;BMP280;47260;48.274;19.814;2023-05-07T03:39:38;99339.06;;;10.42
61390;BMP280;47260;48.274;19.814;2023-05-07T03:41:09;99341.25;;;10.44
61390;BMP280;47260;48.274;19.814;2023-05-07T03:42:43;99346.16;;;10.40
61390;BMP280;47260;48.274;19.814;2023-05-07T03:44:16;99345.66;;;10.41
61390;BMP280;47260;48.274;19.814;2023-05-07T03:45:46;99353.44;;;10.45
61390;BMP280;47260;48.274;19.814;2023-05-07T03:47:23;99358.56;;;10.48
61390;BMP280;47260;48.274;19.814;2023-05-07T03:48:55;99359.31;;;10.60
61390;BMP280;47260;48.274;19.814;2023-05-07T03:50:26;99361.25;;;10.76
61390;BMP280;47260;48.274;19.814;2023-05-07T03:51:57;99368.09;;;10.88
61390;BMP280;47260;48.274;19.814;2023-05-07T03:53:29;99375.41;;;11.04
61390;BMP280;47260;48.274;19.814;2023-05-07T03:55:01;99373.38;;;11.32
61390;BMP280;47260;48.274;19.814;2023-05-07T03:56:34;99374.50;;;11.59
61390;BMP280;47260;48.274;19.814;2023-05-07T03:58:07;99378.09;;;11.78
61390;BMP280;47260;48.274;19.814;2023-05-07T03:59:38;99385.88;;;11.81
61390;BMP280;47260;48.274;19.814;2023-05-07T04:01:11;99385.84;;;11.93
61390;BMP280;47260;48.274;19.814;2023-05-07T04:02:43;99383.91;;;11.88
61390;BMP280;47260;48.274;19.814;2023-05-07T04:04:14;99379.47;;;11.90
61390;BMP280;47260;48.274;19.814;2023-05-07T04:05:46;99383.91;;;11.88
61390;BMP280;47260;48.274;19.814;2023-05-07T04:07:18;99378.78;;;11.84
61390;BMP280;47260;48.274;19.814;2023-05-07T04:08:53;99386.16;;;11.78
61390;BMP280;47260;48.274;19.814;2023-05-07T04:10:25;99385.13;;;11.81
61390;BMP280;47260;48.274;19.814;2023-05-07T04:11:59;99382.66;;;11.89
61390;BMP280;47260;48.274;19.814;2023-05-07T04:13:33;99383.91;;;11.88
61390;BMP280;47260;48.274;19.814;2023-05-07T04:15:07;99381.22;;;11.88
61390;BMP280;47260;48.274;19.814;2023-05-07T04:16:39;99385.84;;;11.93
61390;BMP280;47260;48.274;19.814;2023-05-07T04:18:12;99385.34;;;11.94
61390;BMP280;47260;48.274;19.814;2023-05-07T04:19:45;99383.88;;;11.93
61390;BMP280;47260;48.274;19.814;2023-05-07T04:21:20;99392.66;;;11.94
61390;BMP280;47260;48.274;19.814;2023-05-07T04:22:54;99382.97;;;11.79
61390;BMP280;47260;48.274;19.814;2023-05-07T04:24:26;99386.06;;;11.95
61390;BMP280;47260;48.274;19.814;2023-05-07T04:25:57;99400.13;;;12.12
61390;BMP280;47260;48.274;19.814;2023-05-07T04:27:44;99395.59;;;12.36
61390;BMP280;47260;48.274;19.814;2023-05-07T04:29:18;99398.16;;;12.53
61390;BMP280;47260;48.274;19.814;2023-05-07T04:30:51;99404.88;;;12.70
61390;BMP280;47260;48.274;19.814;2023-05-07T04:32:23;99407.22;;;12.79
61390;BMP280;47260;48.274;19.814;2023-05-07T04:33:56;99406.47;;;13.09
61390;BMP280;47260;48.274;19.814;2023-05-07T04:35:27;99418.13;;;13.41
61390;BMP280;47260;48.274;19.814;2023-05-07T04:36:59;99421.72;;;13.67
61390;BMP280;47260;48.274;19.814;2023-05-07T04:38:31;99423.00;;;13.61
61390;BMP280;47260;48.274;19.814;2023-05-07T04:40:04;99417.56;;;13.48
61390;BMP280;47260;48.274;19.814;2023-05-07T04:41:36;99419.84;;;13.38
61390;BMP280;47260;48.274;19.814;2023-05-07T04:43:08;99414.44;;;13.20
61390;BMP280;47260;48.274;19.814;2023-05-07T04:44:47;99422.00;;;13.21
61390;BMP280;47260;48.274;19.814;2023-05-07T04:46:23;99417.34;;;13.22
61390;BMP280;47260;48.274;19.814;2023-05-07T04:47:55;99420.66;;;13.33
61390;BMP280;47260;48.274;19.814;2023-05-07T04:49:26;99429.47;;;13.34
61390;BMP280;47260;48.274;19.814;2023-05-07T04:50:59;99420.47;;;13.50
61390;BMP280;47260;48.274;19.814;2023-05-07T04:52:30;99423.81;;;13.56
61390;BMP280;47260;48.274;19.814;2023-05-07T04:54:03;99421.44;;;13.52
61390;BMP280;47260;48.274;19.814;2023-05-07T04:55:35;99433.50;;;13.46
61390;BMP280;47260;48.274;19.814;2023-05-07T04:57:07;99425.34;;;13.51
61390;BMP280;47260;48.274;19.814;2023-05-07T04:58:39;99426.28;;;13.35
61390;BMP280;47260;48.274;19.814;2023-05-07T05:00:14;99424.38;;;13.30
61390;BMP280;47260;48.274;19.814;2023-05-07T05:01:49;99426.03;;;13.33
61390;BMP280;47260;48.274;19.814;2023-05-07T05:03:20;99425.53;;;13.11
61390;BMP280;47260;48.274;19.814;2023-05-07T05:04:52;99433.06;;;13.18
61390;BMP280;47260;48.274;19.814;2023-05-07T05:06:23;99417.53;;;13.05
61390;BMP280;47260;48.274;19.814;2023-05-07T05:07:56;99424.22;;;12.93
61390;BMP280;47260;48.274;19.814;2023-05-07T05:09:28;99419.03;;;13.01
61390;BMP280;47260;48.274;19.814;2023-05-07T05:11:00;99417.69;;;13.13
61390;BMP280;47260;48.274;19.814;2023-05-07T05:12:31;99423.34;;;13.33
61390;BMP280;47260;48.274;19.814;2023-05-07T05:14:04;99422.22;;;13.47
61390;BMP280;47260;48.274;19.814;2023-05-07T05:15:37;99423.00;;;13.61
61390;BMP280;47260;48.274;19.814;2023-05-07T05:17:09;99424.88;;;13.71
61390;BMP280;47260;48.274;19.814;2023-05-07T05:18:41;99416.97;;;13.73
61390;BMP280;47260;48.274;19.814;2023-05-07T05:20:17;99423.47;;;13.83
61390;BMP280;47260;48.274;19.814;2023-05-07T05:21:49;99419.63;;;13.98
61390;BMP280;47260;48.274;19.814;2023-05-07T05:23:20;99421.94;;;14.07
61390;BMP280;47260;48.274;19.814;2023-05-07T05:24:52;99428.19;;;14.46
61390;BMP280;47260;48.274;19.814;2023-05-07T05:26:26;99418.03;;;14.52
61390;BMP280;47260;48.274;19.814;2023-05-07T05:27:58;99425.72;;;14.48
61390;BMP280;47260;48.274;19.814;2023-05-07T05:29:28;99411.56;;;14.42
61390;BMP280;47260;48.274;19.814;2023-05-07T05:31:04;99422.28;;;14.48
61390;BMP280;47260;48.274;19.814;2023-05-07T05:32:39;99423.75;;;14.49
61390;BMP280;47260;48.274;19.814;2023-05-07T05:34:10;99426.50;;;14.62
61390;BMP280;47260;48.274;19.814;2023-05-07T05:35:42;99425.84;;;14.56
61390;BMP280;47260;48.274;19.814;2023-05-07T05:37:16;99436.75;;;14.63
61390;BMP280;47260;48.274;19.814;2023-05-07T05:38:48;99433.34;;;14.76
61390;BMP280;47260;48.274;19.814;2023-05-07T05:40:20;99428.16;;;14.78
61390;BMP280;47260;48.274;19.814;2023-05-07T05:41:52;99439.19;;;14.67
61390;BMP280;47260;48.274;19.814;2023-05-07T05:43:24;99436.97;;;14.65
61390;BMP280;47260;48.274;19.814;2023-05-07T05:44:55;99434.50;;;14.67
61390;BMP280;47260;48.274;19.814;2023-05-07T05:46:29;99439.78;;;14.60
61390;BMP280;47260;48.274;19.814;2023-05-07T05:48:01;99440.94;;;14.64
61390;BMP280;47260;48.274;19.814;2023-05-07T05:49:33;99439.94;;;14.49
61390;BMP280;47260;48.274;19.814;2023-05-07T05:51:08;99434.88;;;14.45
61390;BMP280;47260;48.274;19.814;2023-05-07T05:52:39;99436.66;;;14.56
61390;BMP280;47260;48.274;19.814;2023-05-07T05:54:13;99434.94;;;14.40
61390;BMP280;47260;48.274;19.814;2023-05-07T05:55:43;99429.19;;;14.30
61390;BMP280;47260;48.274;19.814;2023-05-07T05:57:16;99431.56;;;14.34
61390;BMP280;47260;48.274;19.814;2023-05-07T05:58:49;99439.75;;;14.47
61390;BMP280;47260;48.274;19.814;2023-05-07T06:00:21;99444.31;;;14.52
61390;BMP280;47260;48.274;19.814;2023-05-07T06:02:02;99442.81;;;14.69
61390;BMP280;47260;48.274;19.814;2023-05-07T06:03:34;99445.81;;;14.66
61390;BMP280;47260;48.274;19.814;2023-05-07T06:05:09;99441.59;;;14.83
61390;BMP280;47260;48.274;19.814;2023-05-07T06:06:41;99443.47;;;14.88
61390;BMP280;47260;48.274;19.814;2023-05-07T06:08:13;99445.25;;;15.12
61390;BMP280;47260;48.274;19.814;2023-05-07T06:09:44;99449.13;;;15.30
61390;BMP280;47260;48.274;19.814;2023-05-07T06:11:17;99450.44;;;15.62
61390;BMP280;47260;48.274;19.814;2023-05-07T06:12:50;99455.34;;;15.97
61390;BMP280;47260;48.274;19.814;2023-05-07T06:14:22;99450.47;;;16.16
61390;BMP280;47260;48.274;19.814;2023-05-07T06:15:54;99448.47;;;16.38
61390;BMP280;47260;48.274;19.814;2023-05-07T06:17:27;99454.66;;;16.87
61390;BMP280;47260;48.274;19.814;2023-05-07T06:18:59;99454.31;;;17.26
61390;BMP280;47260;48.274;19.814;2023-05-07T06:20:30;99460.66;;;17.28
61390;BMP280;47260;48.274;19.814;2023-05-07T06:22:04;99459.31;;;17.57
61390;BMP280;47260;48.274;19.814;2023-05-07T06:23:37;99455.69;;;17.55
61390;BMP280;47260;48.274;19.814;2023-05-07T06:25:11;99455.31;;;18.17
61390;BMP280;47260;48.274;19.814;2023-05-07T06:26:43;99452.59;;;18.24
61390;BMP280;47260;48.274;19.814;2023-05-07T06:28:15;99454.78;;;18.41
61390;BMP280;47260;48.274;19.814;2023-05-07T06:29:47;99450.22;;;19.28
61390;BMP280;47260;48.274;19.814;2023-05-07T06:31:21;99453.09;;;19.70
61390;BMP280;47260;48.274;19.814;2023-05-07T06:33:05;99452.22;;;20.41
61390;BMP280;47260;48.274;19.814;2023-05-07T06:34:38;99445.75;;;20.88
61390;BMP280;47260;48.274;19.814;2023-05-07T06:36:10;99444.97;;;21.74
61390;BMP280;47260;48.274;19.814;2023-05-07T06:37:43;99443.59;;;21.92
61390;BMP280;47260;48.274;19.814;2023-05-07T06:39:20;99445.59;;;21.29
61390;BMP280;47260;48.274;19.814;2023-05-07T06:40:52;99446.56;;;21.87
61390;BMP280;47260;48.274;19.814;2023-05-07T06:42:25;99443.84;;;22.71
61390;BMP280;47260;48.274;19.814;2023-05-07T06:44:02;99444.81;;;23.53
61390;BMP280;47260;48.274;19.814;2023-05-07T06:45:43;99435.59;;;24.10
61390;BMP280;47260;48.274;19.814;2023-05-07T06:47:15;99432.03;;;24.19
61390;BMP280;47260;48.274;19.814;2023-05-07T06:48:51;99438.97;;;22.88
61390;BMP280;47260;48.274;19.814;2023-05-07T06:50:23;99449.59;;;22.46
61390;BMP280;47260;48.274;19.814;2023-05-07T06:51:59;99449.19;;;22.40
61390;BMP280;47260;48.274;19.814;2023-05-07T06:53:31;99439.81;;;22.91
61390;BMP280;47260;48.274;19.814;2023-05-07T06:55:06;99444.09;;;22.94
61390;BMP280;47260;48.274;19.814;2023-05-07T06:56:38;99447.19;;;23.38
61390;BMP280;47260;48.274;19.814;2023-05-07T06:58:10;99443.63;;;23.16
61390;BMP280;47260;48.274;19.814;2023-05-07T06:59:42;99449.56;;;23.13
61390;BMP280;47260;48.274;19.814;2023-05-07T07:01:14;99442.66;;;23.02
61390;BMP280;47260;48.274;19.814;2023-05-07T07:02:48;99445.91;;;24.21
61390;BMP280;47260;48.274;19.814;2023-05-07T07:04:23;99455.91;;;23.65
61390;BMP280;47260;48.274;19.814;2023-05-07T07:06:03;99444.53;;;24.10
61390;BMP280;47260;48.274;19.814;2023-05-07T07:07:34;99442.06;;;23.84
61390;BMP280;47260;48.274;19.814;2023-05-07T07:09:06;99437.38;;;23.75
61390;BMP280;47260;48.274;19.814;2023-05-07T07:10:39;99452.28;;;23.22
61390;BMP280;47260;48.274;19.814;2023-05-07T07:12:10;99454.19;;;22.24
61390;BMP280;47260;48.274;19.814;2023-05-07T07:13:45;99455.31;;;22.31
61390;BMP280;47260;48.274;19.814;2023-05-07T07:15:17;99455.25;;;23.45
61390;BMP280;47260;48.274;19.814;2023-05-07T07:16:49;99451.28;;;23.58
61390;BMP280;47260;48.274;19.814;2023-05-07T07:18:22;99444.91;;;24.16
61390;BMP280;47260;48.274;19.814;2023-05-07T07:19:57;99447.66;;;24.70
61390;BMP280;47260;48.274;19.814;2023-05-07T07:21:28;99445.16;;;25.41
61390;BMP280;47260;48.274;19.814;2023-05-07T07:23:01;99443.00;;;25.51
61390;BMP280;47260;48.274;19.814;2023-05-07T07:24:32;99443.03;;;26.11
61390;BMP280;47260;48.274;19.814;2023-05-07T07:26:08;99445.41;;;26.53
61390;BMP280;47260;48.274;19.814;2023-05-07T07:27:39;99443.06;;;26.61
61390;BMP280;47260;48.274;19.814;2023-05-07T07:29:12;99441.94;;;25.56
61390;BMP280;47260;48.274;19.814;2023-05-07T07:30:46;99430.94;;;25.22
61390;BMP280;47260;48.274;19.814;2023-05-07T07:32:19;99441.16;;;25.90
61390;BMP280;47260;48.274;19.814;2023-05-07T07:33:51;99435.22;;;25.82
61390;BMP280;47260;48.274;19.814;2023-05-07T07:35:24;99434.97;;;25.90
61390;BMP280;47260;48.274;19.814;2023-05-07T07:36:56;99430.88;;;25.91
61390;BMP280;47260;48.274;19.814;2023-05-07T07:38:28;99434.22;;;26.37
61390;BMP280;47260;48.274;19.814;2023-05-07T07:40:00;99435.28;;;26.69
61390;BMP280;47260;48.274;19.814;2023-05-07T07:41:32;99433.72;;;27.04
61390;BMP280;47260;48.274;19.814;2023-05-07T07:43:04;99432.81;;;27.27
61390;BMP280;47260;48.274;19.814;2023-05-07T07:44:37;99432.84;;;27.41
61390;BMP280;47260;48.274;19.814;2023-05-07T07:46:12;99426.19;;;27.46
61390;BMP280;47260;48.274;19.814;2023-05-07T07:47:44;99428.22;;;27.59
61390;BMP280;47260;48.274;19.814;2023-05-07T07:49:16;99425.16;;;27.53
61390;BMP280;47260;48.274;19.814;2023-05-07T07:50:50;99422.72;;;27.59
61390;BMP280;47260;48.274;19.814;2023-05-07T07:52:23;99426.78;;;26.65
61390;BMP280;47260;48.274;19.814;2023-05-07T07:53:55;99422.31;;;25.04
61390;BMP280;47260;48.274;19.814;2023-05-07T07:55:28;99419.88;;;24.76
61390;BMP280;47260;48.274;19.814;2023-05-07T07:57:01;99421.88;;;25.42
61390;BMP280;47260;48.274;19.814;2023-05-07T07:58:36;99417.94;;;25.57
61390;BMP280;47260;48.274;19.814;2023-05-07T08:00:09;99414.56;;;26.06
61390;BMP280;47260;48.274;19.814;2023-05-07T08:01:47;99418.22;;;26.22
61390;BMP280;47260;48.274;19.814;2023-05-07T08:03:21;99410.63;;;26.59
61390;BMP280;47260;48.274;19.814;2023-05-07T08:04:56;99414.94;;;26.62
61390;BMP280;47260;48.274;19.814;2023-05-07T08:06:29;99418.88;;;26.84
61390;BMP280;47260;48.274;19.814;2023-05-07T08:08:01;99414.31;;;26.89
61390;BMP280;47260;48.274;19.814;2023-05-07T08:09:37;99416.00;;;25.59
61390;BMP280;47260;48.274;19.814;2023-05-07T08:11:09;99417.16;;;25.68
61390;BMP280;47260;48.274;19.814;2023-05-07T08:12:42;99421.94;;;25.79
61390;BMP280;47260;48.274;19.814;2023-05-07T08:14:14;99419.31;;;25.81
61390;BMP280;47260;48.274;19.814;2023-05-07T08:15:47;99418.88;;;25.61
61390;BMP280;47260;48.274;19.814;2023-05-07T08:17:20;99413.78;;;25.92
61390;BMP280;47260;48.274;19.814;2023-05-07T08:18:53;99418.75;;;26.07
61390;BMP280;47260;48.274;19.814;2023-05-07T08:20:25;99421.50;;;25.36
61390;BMP280;47260;48.274;19.814;2023-05-07T08:21:58;99412.66;;;25.26
61390;BMP280;47260;48.274;19.814;2023-05-07T08:23:30;99416.00;;;25.59
61390;BMP280;47260;48.274;19.814;2023-05-07T08:25:02;99419.41;;;25.94
61390;BMP280;47260;48.274;19.814;2023-05-07T08:26:36;99406.78;;;26.14
61390;BMP280;47260;48.274;19.814;2023-05-07T08:28:10;99410.75;;;26.36
61390;BMP280;47260;48.274;19.814;2023-05-07T08:29:42;99414.28;;;26.50
61390;BMP280;47260;48.274;19.814;2023-05-07T08:31:18;99412.09;;;26.60
61390;BMP280;47260;48.274;19.814;2023-05-07T08:32:51;99420.94;;;26.59
61390;BMP280;47260;48.274;19.814;2023-05-07T08:34:23;99414.81;;;26.10
61390;BMP280;47260;48.274;19.814;2023-05-07T08:35:56;99419.25;;;26.40
61390;BMP280;47260;48.274;19.814;2023-05-07T08:37:30;99421.22;;;26.51
61390;BMP280;47260;48.274;19.814;2023-05-07T08:39:02;99414.25;;;26.37
61390;BMP280;47260;48.274;19.814;2023-05-07T08:40:37;99416.44;;;26.52
61390;BMP280;47260;48.274;19.814;2023-05-07T08:42:11;99412.44;;;26.55
61390;BMP280;47260;48.274;19.814;2023-05-07T08:43:47;99419.06;;;26.50
61390;BMP280;47260;48.274;19.814;2023-05-07T08:45:19;99419.41;;;26.31
61390;BMP280;47260;48.274;19.814;2023-05-07T08:46:56;99420.03;;;26.18